createdAt,value
2023-03-20T00:00:30.719Z,66.41
2023-03-20T00:02:57.939Z,66.33
2023-03-20T00:05:28.345Z,66.25
2023-03-20T00:07:55.614Z,66.17
2023-03-20T00:10:24.263Z,66.27
2023-03-20T00:12:51.910Z,66.17
2023-03-20T00:15:30.349Z,65.59
2023-03-20T00:17:57.850Z,65.67
2023-03-20T00:20:26.475Z,65.84
2023-03-20T00:22:53.577Z,65.70
2023-03-20T00:25:22.343Z,66.45
2023-03-20T00:27:49.322Z,66.31
2023-03-20T00:30:21.153Z,65.98
2023-03-20T00:32:48.811Z,66.35
2023-03-20T00:35:19.579Z,67.02
2023-03-20T00:37:49.037Z,66.63
2023-03-20T00:40:16.338Z,67.45
2023-03-20T00:42:44.536Z,67.11
2023-03-20T00:45:14.399Z,67.57
2023-03-20T00:47:42.004Z,67.73
2023-03-20T00:50:16.130Z,68.32
2023-03-20T00:52:44.625Z,67.44
2023-03-20T00:55:13.487Z,68.21
2023-03-20T00:57:43.842Z,68.43
2023-03-20T01:00:24.032Z,68.33
2023-03-20T01:02:52.046Z,68.19
2023-03-20T01:05:19.679Z,68.51
2023-03-20T01:07:46.738Z,68.12
2023-03-20T01:10:15.471Z,68.34
2023-03-20T01:12:43.157Z,68.57
2023-03-20T01:15:20.405Z,68.28
2023-03-20T01:17:47.512Z,68.36
2023-03-20T01:20:19.925Z,68.71
2023-03-20T01:22:47.038Z,68.59
2023-03-20T01:25:16.243Z,68.16
2023-03-20T01:27:44.829Z,68.49
2023-03-20T01:30:18.881Z,68.61
2023-03-20T01:32:47.596Z,68.58
2023-03-20T01:35:16.778Z,68.41
2023-03-20T01:37:44.868Z,68.04
2023-03-20T01:40:23.474Z,68.95
2023-03-20T01:42:51.296Z,68.16
2023-03-20T01:45:21.303Z,68.59
2023-03-20T01:47:48.787Z,68.65
2023-03-20T01:50:24.469Z,68.83
2023-03-20T01:53:02.835Z,69.50
2023-03-20T01:55:31.894Z,69.86
2023-03-20T01:58:05.474Z,69.78
2023-03-20T02:00:34.727Z,70.09
2023-03-20T02:03:02.043Z,68.62
2023-03-20T02:05:52.023Z,69.13
2023-03-20T02:08:25.263Z,70.22
2023-03-20T02:10:54.257Z,69.52
2023-03-20T02:13:27.074Z,68.84
2023-03-20T02:16:03.863Z,69.08
2023-03-20T02:18:47.526Z,69.28
2023-03-20T02:21:59.189Z,69.06
2023-03-20T02:25:15.562Z,70.24
2023-03-20T02:27:59.938Z,70.38
2023-03-20T02:30:44.156Z,70.28
2023-03-20T02:33:44.793Z,71.20
2023-03-20T02:36:42.246Z,71.55
2023-03-20T02:39:28.950Z,71.44
2023-03-20T02:42:01.211Z,71.79
2023-03-20T02:44:33.596Z,72.31
2023-03-20T02:47:05.150Z,71.99
2023-03-20T02:49:43.274Z,72.05
2023-03-20T02:52:16.819Z,71.73
2023-03-20T02:54:51.910Z,71.60
2023-03-20T02:57:23.411Z,72.37
2023-03-20T02:59:55.703Z,72.40
2023-03-20T03:02:28.734Z,72.12
2023-03-20T03:04:58.635Z,72.11
2023-03-20T03:07:27.284Z,72.15
2023-03-20T03:09:58.343Z,72.55
2023-03-20T03:12:30.103Z,71.90
2023-03-20T03:15:01.440Z,71.97
2023-03-20T03:17:31.185Z,71.64
2023-03-20T03:20:01.362Z,71.03
2023-03-20T03:22:32.086Z,71.70
2023-03-20T03:25:00.813Z,71.99
2023-03-20T03:27:32.019Z,72.06
2023-03-20T03:30:01.039Z,72.14
2023-03-20T03:32:31.157Z,71.87
2023-03-20T03:34:58.716Z,72.21
2023-03-20T03:37:39.276Z,71.77
2023-03-20T03:40:15.748Z,71.64
2023-03-20T03:42:51.713Z,70.03
2023-03-20T03:45:22.620Z,69.50
2023-03-20T03:47:53.557Z,70.17
2023-03-20T03:50:24.179Z,69.64
2023-03-20T03:52:53.063Z,69.89
2023-03-20T03:55:23.937Z,70.81
2023-03-20T03:58:06.407Z,70.50
2023-03-20T04:00:34.526Z,70.49
2023-03-20T04:03:01.606Z,70.24
2023-03-20T04:05:35.286Z,70.22
2023-03-20T04:08:04.530Z,70.60
2023-03-20T04:10:32.804Z,70.87
2023-03-20T04:13:00.414Z,70.78
2023-03-20T04:15:27.969Z,71.45
2023-03-20T04:17:55.675Z,70.92
2023-03-20T04:20:22.982Z,71.39
2023-03-20T04:22:51.901Z,70.90
2023-03-20T04:25:20.600Z,71.19
2023-03-20T04:27:50.637Z,70.86
2023-03-20T04:30:28.756Z,71.52
2023-03-20T04:33:14.388Z,71.98
2023-03-20T04:35:54.098Z,72.14
2023-03-20T04:38:23.274Z,72.07
2023-03-20T04:40:52.419Z,72.13
2023-03-20T04:43:20.876Z,71.40
2023-03-20T04:45:48.058Z,72.33
2023-03-20T04:48:15.489Z,71.81
2023-03-20T04:50:42.582Z,71.69
2023-03-20T04:53:09.901Z,71.79
2023-03-20T04:55:37.045Z,70.79
2023-03-20T04:58:04.683Z,70.83
2023-03-20T05:00:34.051Z,70.70
2023-03-20T05:03:01.743Z,70.62
2023-03-20T05:05:29.653Z,70.39
2023-03-20T05:07:56.883Z,70.21
2023-03-20T05:10:31.801Z,70.06
2023-03-20T05:13:04.875Z,69.52
2023-03-20T05:15:33.308Z,69.83
2023-03-20T05:18:16.719Z,69.85
2023-03-20T05:20:53.937Z,69.37
2023-03-20T05:23:30.555Z,69.27
2023-03-20T05:26:16.398Z,69.14
2023-03-20T05:29:03.460Z,69.02
2023-03-20T05:31:47.262Z,68.60
2023-03-20T05:34:29.400Z,68.45
2023-03-20T05:37:19.311Z,67.40
2023-03-20T05:40:07.742Z,67.69
2023-03-20T05:42:46.864Z,67.83
2023-03-20T05:45:20.065Z,67.49
2023-03-20T05:48:08.705Z,66.71
2023-03-20T05:50:58.071Z,66.08
2023-03-20T05:53:36.933Z,66.07
2023-03-20T05:56:30.376Z,65.75
2023-03-20T05:59:15.533Z,64.81
2023-03-20T06:02:02.753Z,64.11
2023-03-20T06:04:37.328Z,63.88
2023-03-20T06:07:25.733Z,62.44
2023-03-20T06:10:14.518Z,62.19
2023-03-20T06:12:42.227Z,61.65
2023-03-20T06:15:10.198Z,60.55
2023-03-20T06:17:41.511Z,60.39
2023-03-20T06:20:11.399Z,61.16
2023-03-20T06:22:38.580Z,60.42
2023-03-20T06:25:07.632Z,60.72
2023-03-20T06:27:39.774Z,59.26
2023-03-20T06:30:08.191Z,58.90
2023-03-20T06:32:36.563Z,59.86
2023-03-20T06:35:07.720Z,59.06
2023-03-20T06:37:36.614Z,58.48
2023-03-20T06:40:11.738Z,58.01
2023-03-20T06:42:39.220Z,57.47
2023-03-20T06:45:08.233Z,57.83
2023-03-20T06:47:56.815Z,57.62
2023-03-20T06:50:23.804Z,56.90
2023-03-20T06:52:52.458Z,55.36
2023-03-20T06:55:38.410Z,54.89
2023-03-20T06:58:05.974Z,54.23
2023-03-20T07:00:34.522Z,54.17
2023-03-20T07:03:04.886Z,54.95
2023-03-20T07:05:32.636Z,53.56
2023-03-20T07:08:02.265Z,52.95
2023-03-20T07:10:29.361Z,52.38
2023-03-20T07:12:56.810Z,52.62
2023-03-20T07:15:24.733Z,51.75
2023-03-20T07:17:51.968Z,50.68
2023-03-20T07:20:19.082Z,50.53
2023-03-20T07:22:48.008Z,50.33
2023-03-20T07:25:42.608Z,49.18
2023-03-20T07:28:14.873Z,49.47
2023-03-20T07:30:45.669Z,49.13
2023-03-20T07:33:16.314Z,48.42
2023-03-20T07:35:44.578Z,49.12
2023-03-20T07:38:12.044Z,47.83
2023-03-20T07:40:50.624Z,46.87
2023-03-20T07:43:17.748Z,46.99
2023-03-20T07:46:09.059Z,46.89
2023-03-20T07:48:38.616Z,45.73
2023-03-20T07:51:06.541Z,44.49
2023-03-20T07:53:33.504Z,44.34
2023-03-20T07:56:01.878Z,44.97
2023-03-20T07:58:31.963Z,43.78
2023-03-20T08:01:03.712Z,43.63
2023-03-20T08:03:31.693Z,43.62
2023-03-20T08:05:58.838Z,42.06
2023-03-20T08:08:26.082Z,41.94
2023-03-20T08:10:53.116Z,41.56
2023-03-20T08:13:21.430Z,41.60
2023-03-20T08:15:48.209Z,41.70
2023-03-20T08:18:15.390Z,40.13
2023-03-20T08:20:42.365Z,39.55
2023-03-20T08:23:09.341Z,40.03
2023-03-20T08:25:36.538Z,39.22
2023-03-20T08:28:03.709Z,37.62
2023-03-20T08:30:32.371Z,37.41
2023-03-20T08:32:59.564Z,37.71
2023-03-20T08:35:33.208Z,37.09
2023-03-20T08:38:00.899Z,36.93
2023-03-20T08:40:27.906Z,36.24
2023-03-20T08:42:54.830Z,35.97
2023-03-20T08:45:22.312Z,35.93
2023-03-20T08:47:51.706Z,34.78
2023-03-20T08:50:18.836Z,35.30
2023-03-20T08:52:47.179Z,34.61
2023-03-20T08:55:15.879Z,34.38
2023-03-20T08:57:42.906Z,33.71
2023-03-20T09:00:12.944Z,33.90
2023-03-20T09:02:39.922Z,34.01
2023-03-20T09:05:09.601Z,33.05
2023-03-20T09:07:37.075Z,32.86
2023-03-20T09:10:04.795Z,32.59
2023-03-20T09:12:32.806Z,32.11
2023-03-20T09:14:59.698Z,32.32
2023-03-20T09:17:26.743Z,31.22
2023-03-20T09:19:53.851Z,30.86
2023-03-20T09:22:22.282Z,31.87
2023-03-20T09:24:49.337Z,31.27
2023-03-20T09:27:16.445Z,31.02
2023-03-20T09:29:43.827Z,30.32
2023-03-20T09:32:12.215Z,30.09
2023-03-20T09:34:39.125Z,29.79
2023-03-20T09:37:06.739Z,30.31
2023-03-20T09:39:35.278Z,29.59
2023-03-20T09:42:09.227Z,30.17
2023-03-20T09:44:47.385Z,29.62
2023-03-20T09:47:20.923Z,28.99
2023-03-20T09:49:54.196Z,29.53
2023-03-20T09:52:24.796Z,28.45
2023-03-20T09:54:55.270Z,27.96
2023-03-20T09:57:25.514Z,27.56
2023-03-20T09:59:56.658Z,26.68
2023-03-20T10:02:30.241Z,27.72
2023-03-20T10:04:57.275Z,26.87
2023-03-20T10:07:26.087Z,26.31
2023-03-20T10:09:54.689Z,25.02
2023-03-20T10:12:36.021Z,26.20
2023-03-20T10:15:10.611Z,26.30
2023-03-20T10:17:48.524Z,26.20
2023-03-20T10:20:24.817Z,26.51
2023-03-20T10:22:55.123Z,24.70
2023-03-20T10:25:28.368Z,26.02
2023-03-20T10:27:58.976Z,25.85
2023-03-20T10:30:33.526Z,25.07
2023-03-20T10:33:11.697Z,24.58
2023-03-20T10:35:43.562Z,24.66
2023-03-20T10:38:22.637Z,23.65
2023-03-20T10:40:51.380Z,23.51
2023-03-20T10:43:22.252Z,24.35
2023-03-20T10:45:51.510Z,23.82
2023-03-20T10:48:22.967Z,24.16
2023-03-20T10:50:52.686Z,23.31
2023-03-20T10:53:26.302Z,23.42
2023-03-20T10:55:56.282Z,23.36
2023-03-20T10:58:24.961Z,22.92
2023-03-20T11:00:55.397Z,22.59
2023-03-20T11:03:24.080Z,22.10
2023-03-20T11:06:08.575Z,22.03
2023-03-20T11:08:38.695Z,22.67
2023-03-20T11:11:07.147Z,21.81
2023-03-20T11:13:36.380Z,22.91
2023-03-20T11:16:21.975Z,22.27
2023-03-20T11:18:50.772Z,21.67
2023-03-20T11:21:21.424Z,20.32
2023-03-20T11:23:48.804Z,20.46
2023-03-20T11:26:18.294Z,20.88
2023-03-20T11:28:51.286Z,20.74
2023-03-20T11:31:21.065Z,21.63
2023-03-20T11:33:53.303Z,20.21
2023-03-20T11:36:22.776Z,20.30
2023-03-20T11:38:50.853Z,19.85
2023-03-20T11:41:23.991Z,18.63
2023-03-20T11:43:50.985Z,19.41
2023-03-20T11:46:21.239Z,19.30
2023-03-20T11:49:07.190Z,20.89
2023-03-20T11:51:35.974Z,19.72
2023-03-20T11:54:04.462Z,18.27
2023-03-20T11:56:34.105Z,18.73
2023-03-20T11:59:04.184Z,17.95
2023-03-20T12:01:38.959Z,18.30
2023-03-20T12:04:08.221Z,19.41
2023-03-20T12:06:43.850Z,19.90
2023-03-20T12:09:22.771Z,23.26
2023-03-20T12:11:54.268Z,23.24
2023-03-20T12:14:26.205Z,19.84
2023-03-20T12:16:57.137Z,20.47
2023-03-20T12:19:26.564Z,19.54
2023-03-20T12:22:01.590Z,19.23
2023-03-20T12:24:34.090Z,18.43
2023-03-20T12:27:13.889Z,17.36
2023-03-20T12:29:43.751Z,17.47
2023-03-20T12:32:16.115Z,17.80
2023-03-20T12:34:47.130Z,16.18
2023-03-20T12:37:15.244Z,16.74
2023-03-20T12:39:48.567Z,17.23
2023-03-20T12:42:27.484Z,16.29
2023-03-20T12:44:56.385Z,15.94
2023-03-20T12:47:42.771Z,16.22
2023-03-20T12:50:20.499Z,16.50
2023-03-20T12:52:53.007Z,15.87
2023-03-20T12:55:31.829Z,17.08
2023-03-20T12:58:30.026Z,15.91
2023-03-20T13:01:03.740Z,16.05
2023-03-20T13:03:52.938Z,16.30
2023-03-20T13:06:22.932Z,16.12
2023-03-20T13:09:16.152Z,15.95
2023-03-20T13:11:46.903Z,16.56
2023-03-20T13:14:19.833Z,17.35
2023-03-20T13:16:52.450Z,17.83
2023-03-20T13:19:27.171Z,16.94
2023-03-20T13:21:58.433Z,16.61
2023-03-20T13:24:34.105Z,16.56
2023-03-20T13:27:08.413Z,16.78
2023-03-20T13:29:44.652Z,15.98
2023-03-20T13:32:19.276Z,15.67
2023-03-20T13:35:10.542Z,15.93
2023-03-20T13:37:40.304Z,15.96
2023-03-20T13:40:15.067Z,15.70
2023-03-20T13:42:46.368Z,14.88
2023-03-20T13:45:24.863Z,15.14
2023-03-20T13:47:53.187Z,14.71
2023-03-20T13:50:32.242Z,13.90
2023-03-20T13:53:04.381Z,15.04
2023-03-20T13:55:36.458Z,14.68
2023-03-20T13:58:15.002Z,15.40
2023-03-20T14:00:50.215Z,15.82
2023-03-20T14:03:19.855Z,15.77
2023-03-20T14:05:48.031Z,15.72
2023-03-20T14:08:33.350Z,16.50
2023-03-20T14:11:13.864Z,16.06
2023-03-20T14:13:44.610Z,16.75
2023-03-20T14:16:15.805Z,17.14
2023-03-20T14:18:44.590Z,16.93
2023-03-20T14:21:13.323Z,17.18
2023-03-20T14:23:41.787Z,17.37
2023-03-20T14:26:10.021Z,17.22
2023-03-20T14:28:54.241Z,17.80
2023-03-20T14:31:25.673Z,17.23
2023-03-20T14:34:01.240Z,17.84
2023-03-20T14:36:44.527Z,17.88
2023-03-20T14:39:18.334Z,17.06
2023-03-20T14:42:00.498Z,17.66
2023-03-20T14:44:36.684Z,16.93
2023-03-20T14:47:10.713Z,17.07
2023-03-20T14:49:46.581Z,17.07
2023-03-20T14:52:25.165Z,18.15
2023-03-20T14:54:53.233Z,17.22
2023-03-20T14:57:27.670Z,17.37
2023-03-20T14:59:55.104Z,18.18
2023-03-20T15:02:27.352Z,18.08
2023-03-20T15:04:54.784Z,19.65
2023-03-20T15:07:24.898Z,18.75
2023-03-20T15:09:54.437Z,18.64
2023-03-20T15:12:24.017Z,18.97
2023-03-20T15:14:54.251Z,19.34
2023-03-20T15:17:23.545Z,19.99
2023-03-20T15:20:00.338Z,21.52
2023-03-20T15:22:27.756Z,22.51
2023-03-20T15:24:56.020Z,23.65
2023-03-20T15:27:26.149Z,24.51
2023-03-20T15:29:54.781Z,24.49
2023-03-20T15:32:22.061Z,24.40
2023-03-20T15:34:51.247Z,24.96
2023-03-20T15:37:20.986Z,25.26
2023-03-20T15:39:49.546Z,26.01
2023-03-20T15:42:18.420Z,27.17
2023-03-20T15:44:48.317Z,27.43
2023-03-20T15:47:20.612Z,27.54
2023-03-20T15:49:52.808Z,28.16
2023-03-20T15:52:25.699Z,29.13
2023-03-20T15:54:53.113Z,29.35
2023-03-20T15:57:24.095Z,29.94
2023-03-20T15:59:51.554Z,29.99
2023-03-20T16:02:18.888Z,30.06
2023-03-20T16:04:48.417Z,30.22
2023-03-20T16:07:23.733Z,30.70
2023-03-20T16:09:51.066Z,31.07
2023-03-20T16:12:18.937Z,31.16
2023-03-20T16:14:47.293Z,31.38
2023-03-20T16:17:14.784Z,31.01
2023-03-20T16:19:41.838Z,31.60
2023-03-20T16:22:17.895Z,30.48
2023-03-20T16:24:48.892Z,30.79
2023-03-20T16:27:24.219Z,30.96
2023-03-20T16:29:52.495Z,31.54
2023-03-20T16:32:30.454Z,31.82
2023-03-20T16:34:59.329Z,31.03
2023-03-20T16:37:29.215Z,31.75
2023-03-20T16:40:12.046Z,32.27
2023-03-20T16:42:39.111Z,32.21
2023-03-20T16:45:08.927Z,32.48
2023-03-20T16:47:38.486Z,31.71
2023-03-20T16:50:20.872Z,32.51
2023-03-20T16:52:52.690Z,31.72
2023-03-20T16:55:25.425Z,32.81
2023-03-20T16:57:56.179Z,32.78
2023-03-20T17:00:27.385Z,32.45
2023-03-20T17:03:06.204Z,32.96
2023-03-20T17:05:54.530Z,32.32
2023-03-20T17:08:30.937Z,32.13
2023-03-20T17:11:05.168Z,32.51
2023-03-20T17:13:32.238Z,32.56
2023-03-20T17:15:59.695Z,32.31
2023-03-20T17:18:26.623Z,32.81
2023-03-20T17:20:53.748Z,33.32
2023-03-20T17:23:22.721Z,33.48
2023-03-20T17:25:50.669Z,33.07
2023-03-20T17:28:21.461Z,33.68
2023-03-20T17:30:49.659Z,33.82
2023-03-20T17:33:19.063Z,33.27
2023-03-20T17:35:46.200Z,33.46
2023-03-20T17:38:17.090Z,33.27
2023-03-20T17:40:45.013Z,33.14
2023-03-20T17:43:13.114Z,33.44
2023-03-20T17:45:42.142Z,33.64
2023-03-20T17:48:15.785Z,33.24
2023-03-20T17:50:43.426Z,33.73
2023-03-20T17:53:15.418Z,33.67
2023-03-20T17:55:42.468Z,33.93
2023-03-20T17:58:14.422Z,34.54
2023-03-20T18:00:43.679Z,34.63
2023-03-20T18:03:10.858Z,34.90
2023-03-20T18:05:39.590Z,35.81
2023-03-20T18:08:09.367Z,36.74
2023-03-20T18:10:37.607Z,37.07
2023-03-20T18:13:04.865Z,37.46
2023-03-20T18:15:32.250Z,36.49
2023-03-20T18:18:00.878Z,37.05
2023-03-20T18:20:29.948Z,37.59
2023-03-20T18:22:57.278Z,36.82
2023-03-20T18:25:26.049Z,37.02
2023-03-20T18:27:53.369Z,36.71
2023-03-20T18:30:22.813Z,36.95
2023-03-20T18:32:50.078Z,37.60
2023-03-20T18:35:19.021Z,37.87
2023-03-20T18:37:46.048Z,38.22
2023-03-20T18:40:18.684Z,38.78
2023-03-20T18:42:45.726Z,38.28
2023-03-20T18:45:13.198Z,40.26
2023-03-20T18:47:40.572Z,40.19
2023-03-20T18:50:20.212Z,41.37
2023-03-20T18:52:47.231Z,40.05
2023-03-20T18:55:14.355Z,41.06
2023-03-20T18:57:43.144Z,39.74
2023-03-20T19:00:21.577Z,40.35
2023-03-20T19:02:48.749Z,39.78
2023-03-20T19:05:15.964Z,40.22
2023-03-20T19:07:44.256Z,40.96
2023-03-20T19:10:23.968Z,41.66
2023-03-20T19:12:51.430Z,41.35
2023-03-20T19:15:18.578Z,41.87
2023-03-20T19:17:45.590Z,40.66
2023-03-20T19:20:27.044Z,42.44
2023-03-20T19:22:55.603Z,42.43
2023-03-20T19:25:22.475Z,41.78
2023-03-20T19:27:49.383Z,43.10
2023-03-20T19:30:24.156Z,41.10
2023-03-20T19:32:51.420Z,42.19
2023-03-20T19:35:50.357Z,42.81
2023-03-20T19:38:06.914Z,42.64
2023-03-20T19:40:36.506Z,43.64
2023-03-20T19:43:05.687Z,43.47
2023-03-20T19:45:34.758Z,43.43
2023-03-20T19:48:03.219Z,43.84
2023-03-20T19:50:31.072Z,42.64
2023-03-20T19:53:02.099Z,43.33
2023-03-20T19:55:31.308Z,43.06
2023-03-20T19:58:00.559Z,42.91
2023-03-20T20:00:56.447Z,44.88
2023-03-20T20:03:18.225Z,46.44
2023-03-20T20:05:46.478Z,46.52
2023-03-20T20:08:28.531Z,46.76
2023-03-20T20:11:02.748Z,44.74
2023-03-20T20:13:32.774Z,46.51
2023-03-20T20:16:00.416Z,47.07
2023-03-20T20:18:28.363Z,46.24
2023-03-20T20:22:06.426Z,46.37
2023-03-20T20:23:45.550Z,46.23
2023-03-20T20:26:13.911Z,46.81
2023-03-20T20:28:41.156Z,45.31
2023-03-20T20:31:08.221Z,46.39
2023-03-20T20:33:36.852Z,47.52
2023-03-20T20:38:56.951Z,47.37
2023-03-20T20:41:26.153Z,47.98
2023-03-20T20:44:16.033Z,47.92
2023-03-20T20:46:40.464Z,48.45
2023-03-20T20:49:18.727Z,48.75
2023-03-20T20:51:47.263Z,48.67
2023-03-20T20:54:14.821Z,49.25
2023-03-20T20:56:43.179Z,49.11
2023-03-20T20:59:10.173Z,48.30
2023-03-20T21:01:37.182Z,47.64
2023-03-20T21:04:04.258Z,47.81
2023-03-20T21:06:59.716Z,47.96
2023-03-20T21:09:18.285Z,48.20
2023-03-20T21:11:46.781Z,48.82
2023-03-20T21:14:14.037Z,49.13
2023-03-20T21:16:41.202Z,49.13
2023-03-20T21:19:08.216Z,48.97
2023-03-20T21:21:35.780Z,49.33
2023-03-20T21:24:02.844Z,48.33
2023-03-20T21:26:29.869Z,48.75
2023-03-20T21:28:58.219Z,48.57
2023-03-20T21:31:31.121Z,49.01
2023-03-20T21:33:58.485Z,48.34
2023-03-20T21:36:26.027Z,49.14
2023-03-20T21:39:07.291Z,47.71
2023-03-20T21:41:36.495Z,48.29
2023-03-20T21:44:05.618Z,48.12
2023-03-20T21:55:40.912Z,47.82
2023-03-20T22:03:38.638Z,48.62
2023-03-20T22:07:05.672Z,48.99
2023-03-20T22:15:25.408Z,48.78
2023-03-20T22:23:32.361Z,50.18
2023-03-20T22:26:28.508Z,49.44
2023-03-20T22:34:53.623Z,49.31
2023-03-20T22:45:11.159Z,50.64
2023-03-20T22:47:38.493Z,50.29
2023-03-20T22:50:07.409Z,50.33
2023-03-20T22:52:48.075Z,50.29
2023-03-20T22:55:17.408Z,50.72
2023-03-20T22:57:56.290Z,51.73
2023-03-20T23:00:31.547Z,51.86
2023-03-20T23:03:13.826Z,52.32
2023-03-20T23:05:44.374Z,51.97
2023-03-20T23:08:11.597Z,50.12
2023-03-20T23:10:42.984Z,51.46
2023-03-20T23:13:10.088Z,51.54
2023-03-20T23:15:37.205Z,53.12
2023-03-20T23:18:04.493Z,52.14
2023-03-20T23:20:31.510Z,52.86
2023-03-20T23:22:59.810Z,50.96
2023-03-20T23:25:38.303Z,50.89
2023-03-20T23:28:06.597Z,50.69
2023-03-20T23:30:44.977Z,50.40
2023-03-20T23:33:14.940Z,50.70
2023-03-20T23:35:41.954Z,50.19
2023-03-20T23:38:10.471Z,51.13
2023-03-20T23:40:37.825Z,51.63
2023-03-20T23:43:04.990Z,51.77
2023-03-20T23:45:32.191Z,52.42
2023-03-20T23:47:59.288Z,52.30
2023-03-20T23:50:36.599Z,52.91
2023-03-20T23:53:19.547Z,52.53
2023-03-20T23:55:50.092Z,52.63
2023-03-20T23:58:17.143Z,52.28
